Terminal Aerodrome Forecast
Issued by NWS

Home | Current Version | Previous Version | Text Only | Print | Product List | Glossary On
Versions: 1 2 3 4 5 6 7 8 9 10 11 12 13 14
000
FTUS43 KDMX 260520
TAFMCW
TAF
KMCW 260520Z 2606/2706 26003KT P6SM SCT240
     FM261700 27011KT P6SM SCT230
     FM261900 31012G19KT P6SM BKN180=

USA.gov is the U.S. government's official web portal to all federal, state and local government web resources and services.